createdAt,value
2023-01-19T00:04:25.028Z,8.20
2023-01-19T00:09:46.714Z,8.43
2023-01-19T00:15:09.070Z,8.67
2023-01-19T00:20:32.651Z,8.93
2023-01-19T00:25:54.441Z,9.17
2023-01-19T00:31:16.263Z,9.40
2023-01-19T00:36:37.992Z,9.17
2023-01-19T00:42:18.343Z,9.13
2023-01-19T00:47:40.310Z,9.37
2023-01-19T00:53:02.810Z,9.07
2023-01-19T00:58:24.673Z,8.67
2023-01-19T01:03:46.367Z,11.27
2023-01-19T01:09:11.951Z,9.13
2023-01-19T01:14:33.956Z,8.70
2023-01-19T01:19:55.626Z,8.93
2023-01-19T01:25:19.338Z,8.73
2023-01-19T01:30:41.117Z,8.07
2023-01-19T01:36:03.136Z,8.53
2023-01-19T01:41:26.645Z,8.83
2023-01-19T01:46:48.471Z,8.57
2023-01-19T01:52:11.264Z,8.20
2023-01-19T01:57:36.948Z,8.53
2023-01-19T02:03:00.543Z,8.87
2023-01-19T02:08:50.847Z,8.60
2023-01-19T02:14:12.531Z,8.80
2023-01-19T02:19:41.758Z,9.47
2023-01-19T02:25:05.222Z,7.93
2023-01-19T02:30:27.789Z,8.53
2023-01-19T02:35:51.947Z,7.87
2023-01-19T02:41:19.531Z,7.87
2023-01-19T02:46:41.687Z,8.20
2023-01-19T02:52:04.275Z,8.20
2023-01-19T02:57:43.563Z,8.17
2023-01-19T03:03:37.113Z,8.07
2023-01-19T03:09:15.430Z,7.37
2023-01-19T03:14:46.167Z,8.07
2023-01-19T03:20:08.850Z,7.73
2023-01-19T03:25:35.134Z,7.67
2023-01-19T03:31:01.822Z,7.57
2023-01-19T03:36:30.691Z,7.40
2023-01-19T03:41:57.485Z,7.57
2023-01-19T03:47:20.367Z,7.73
2023-01-19T03:52:42.367Z,6.53
2023-01-19T03:58:04.299Z,7.53
2023-01-19T04:03:26.006Z,7.70
2023-01-19T04:08:49.666Z,7.50
2023-01-19T04:14:11.402Z,7.33
2023-01-19T04:19:33.097Z,7.73
2023-01-19T04:24:55.600Z,7.50
2023-01-19T04:30:17.473Z,7.43
2023-01-19T04:35:39.229Z,7.90
2023-01-19T04:41:00.963Z,7.70
2023-01-19T04:46:22.735Z,8.77
2023-01-19T04:51:44.454Z,8.83
2023-01-19T04:57:06.161Z,9.03
2023-01-19T05:02:28.007Z,8.57
2023-01-19T05:07:49.727Z,8.80
2023-01-19T05:13:11.433Z,9.33
2023-01-19T05:18:36.287Z,10.50
2023-01-19T05:23:57.993Z,9.53
2023-01-19T05:29:19.722Z,9.07
2023-01-19T05:34:41.422Z,9.40
2023-01-19T05:40:03.370Z,9.23
2023-01-19T05:45:25.074Z,9.63
2023-01-19T05:50:49.345Z,10.00
2023-01-19T05:56:11.570Z,12.43
2023-01-19T06:01:36.498Z,12.07
2023-01-19T06:06:59.193Z,9.40
2023-01-19T06:12:20.915Z,9.80
2023-01-19T06:17:42.933Z,9.70
2023-01-19T06:23:04.737Z,9.13
2023-01-19T06:28:26.650Z,8.93
2023-01-19T06:33:48.417Z,8.77
2023-01-19T06:39:10.590Z,8.63
2023-01-19T06:44:32.312Z,9.23
2023-01-19T06:49:54.048Z,8.80
2023-01-19T06:55:16.182Z,8.50
2023-01-19T07:00:38.495Z,8.57
2023-01-19T07:06:02.528Z,8.87
2023-01-19T07:11:29.811Z,8.70
2023-01-19T07:16:54.894Z,7.83
2023-01-19T07:22:16.929Z,8.20
2023-01-19T07:27:38.756Z,8.57
2023-01-19T07:33:01.141Z,8.83
2023-01-19T07:38:24.169Z,8.27
2023-01-19T07:43:45.973Z,8.40
2023-01-19T07:49:07.937Z,7.13
2023-01-19T07:54:29.672Z,6.90
2023-01-19T07:59:51.378Z,7.10
2023-01-19T08:05:13.295Z,6.70
2023-01-19T08:10:35.069Z,6.60
2023-01-19T08:15:56.857Z,6.33
2023-01-19T08:21:18.741Z,6.83
2023-01-19T08:26:40.617Z,6.60
2023-01-19T08:32:03.102Z,6.60
2023-01-19T08:37:24.915Z,6.57
2023-01-19T08:42:46.614Z,6.20
2023-01-19T08:48:08.617Z,6.13
2023-01-19T08:53:30.325Z,6.23
2023-01-19T08:59:07.821Z,6.50
2023-01-19T09:04:30.677Z,6.13
2023-01-19T09:09:52.399Z,6.17
2023-01-19T09:15:14.103Z,6.07
2023-01-19T09:20:38.497Z,6.07
2023-01-19T09:26:02.963Z,5.83
2023-01-19T09:31:24.919Z,6.43
2023-01-19T09:36:47.229Z,6.40
2023-01-19T09:42:32.285Z,5.33
2023-01-19T09:47:55.449Z,5.53
2023-01-19T09:53:32.821Z,5.07
2023-01-19T09:58:54.542Z,5.60
2023-01-19T10:04:30.411Z,5.40
2023-01-19T10:10:19.564Z,6.20
2023-01-19T10:15:47.065Z,4.97
2023-01-19T10:21:10.498Z,5.23
2023-01-19T10:26:37.541Z,5.73
2023-01-19T10:32:08.034Z,5.00
2023-01-19T10:37:38.548Z,5.70
2023-01-19T10:43:01.179Z,5.43
2023-01-19T10:48:23.878Z,5.47
2023-01-19T10:53:59.570Z,5.80
2023-01-19T10:59:45.135Z,6.43
2023-01-19T11:05:28.119Z,5.07
2023-01-19T11:11:02.396Z,6.00
2023-01-19T11:16:34.695Z,5.63
2023-01-19T11:22:21.499Z,4.87
2023-01-19T11:27:51.290Z,5.27
2023-01-19T11:33:24.671Z,5.20
2023-01-19T11:38:50.486Z,5.50
2023-01-19T11:44:18.136Z,4.80
2023-01-19T11:50:00.816Z,5.30
2023-01-19T11:55:37.871Z,5.40
2023-01-19T12:01:30.675Z,5.30
2023-01-19T12:06:55.697Z,5.40
2023-01-19T12:12:28.800Z,4.80
2023-01-19T12:17:54.129Z,4.90
2023-01-19T12:23:37.353Z,4.47
2023-01-19T12:29:13.182Z,4.90
2023-01-19T12:35:01.616Z,4.53
2023-01-19T12:40:27.519Z,4.23
2023-01-19T12:45:49.614Z,5.17
2023-01-19T12:51:23.323Z,4.57
2023-01-19T12:56:45.310Z,5.07
2023-01-19T13:02:25.535Z,5.37
2023-01-19T13:08:02.434Z,4.20
2023-01-19T13:13:24.905Z,4.97
2023-01-19T13:18:52.428Z,4.53
2023-01-19T13:24:22.329Z,4.27
2023-01-19T13:29:44.387Z,5.80
2023-01-19T13:35:13.073Z,5.73
2023-01-19T13:40:38.953Z,5.50
2023-01-19T13:46:01.421Z,5.90
2023-01-19T13:51:23.716Z,6.07
2023-01-19T13:56:50.211Z,6.73
2023-01-19T14:02:13.932Z,6.17
2023-01-19T14:07:35.700Z,5.93
2023-01-19T14:13:15.675Z,6.77
2023-01-19T14:18:37.399Z,5.70
2023-01-19T14:24:17.030Z,6.43
2023-01-19T14:29:38.849Z,7.13
2023-01-19T14:35:06.518Z,6.50
2023-01-19T14:40:29.772Z,6.17
2023-01-19T14:45:51.567Z,6.53
2023-01-19T14:51:18.872Z,7.67
2023-01-19T14:56:40.621Z,8.00
2023-01-19T15:02:02.451Z,10.17
2023-01-19T15:07:25.127Z,10.03
2023-01-19T15:12:48.151Z,10.20
2023-01-19T15:18:15.230Z,11.50
2023-01-19T15:23:36.965Z,6.90
2023-01-19T15:28:58.735Z,7.37
2023-01-19T15:34:20.527Z,7.40
2023-01-19T15:39:42.313Z,7.00
2023-01-19T15:45:36.347Z,7.20
2023-01-19T15:50:58.226Z,7.17
2023-01-19T15:56:25.944Z,6.97
2023-01-19T16:01:47.866Z,6.27
2023-01-19T16:07:09.763Z,7.20
2023-01-19T16:12:31.473Z,7.50
2023-01-19T16:17:53.252Z,6.70
2023-01-19T16:23:15.640Z,5.17
2023-01-19T16:28:37.718Z,4.97
2023-01-19T16:33:59.493Z,5.03
2023-01-19T16:39:21.788Z,5.90
2023-01-19T16:44:43.523Z,4.83
2023-01-19T16:50:05.868Z,5.93
2023-01-19T16:55:27.601Z,5.00
2023-01-19T17:00:49.518Z,5.10
2023-01-19T17:06:13.421Z,5.17
2023-01-19T17:11:36.430Z,6.23
2023-01-19T17:17:00.538Z,6.23
2023-01-19T17:22:22.393Z,7.77
2023-01-19T17:27:44.205Z,5.67
2023-01-19T17:33:06.004Z,6.13
2023-01-19T17:38:28.309Z,9.03
2023-01-19T17:43:51.368Z,6.47
2023-01-19T17:49:13.077Z,7.10
2023-01-19T17:54:34.979Z,7.73
2023-01-19T17:59:56.682Z,7.70
2023-01-19T18:05:19.196Z,7.17
2023-01-19T18:10:42.189Z,6.63
2023-01-19T18:16:07.319Z,7.70
2023-01-19T18:21:30.297Z,4.93
2023-01-19T18:26:54.240Z,5.40
2023-01-19T18:32:17.390Z,6.53
2023-01-19T18:37:39.254Z,6.67
2023-01-19T18:43:01.003Z,6.20
2023-01-19T18:48:22.910Z,5.73
2023-01-19T18:53:45.544Z,5.77
2023-01-19T18:59:07.358Z,6.83
2023-01-19T19:04:29.072Z,7.40
2023-01-19T19:09:50.838Z,7.33
2023-01-19T19:15:13.894Z,7.50
2023-01-19T19:20:38.702Z,6.57
2023-01-19T19:26:05.672Z,6.30
2023-01-19T19:31:28.133Z,6.17
2023-01-19T19:36:50.982Z,7.23
2023-01-19T19:42:12.792Z,7.10
2023-01-19T19:47:35.236Z,9.63
2023-01-19T19:52:58.760Z,8.77
2023-01-19T19:58:20.572Z,9.80
2023-01-19T20:03:42.664Z,10.10
2023-01-19T20:09:06.432Z,10.97
2023-01-19T20:14:28.148Z,10.53
2023-01-19T20:19:49.969Z,11.40
2023-01-19T20:25:11.746Z,11.37
2023-01-19T20:30:33.550Z,12.17
2023-01-19T20:35:55.378Z,12.17
2023-01-19T20:41:18.266Z,13.63
2023-01-19T20:46:40.540Z,15.17
2023-01-19T20:52:02.537Z,14.23
2023-01-19T20:57:24.299Z,14.17
2023-01-19T21:02:46.226Z,14.70
2023-01-19T21:08:08.901Z,13.40
2023-01-19T21:13:31.599Z,14.77
2023-01-19T21:18:53.891Z,12.63
2023-01-19T21:24:15.956Z,12.23
2023-01-19T21:29:37.676Z,13.20
2023-01-19T21:34:59.390Z,13.50
2023-01-19T21:40:21.193Z,13.90
2023-01-19T21:45:43.229Z,13.07
2023-01-19T21:51:05.214Z,11.83
2023-01-19T21:56:28.621Z,12.10
2023-01-19T22:01:50.598Z,11.97
2023-01-19T22:07:12.487Z,12.90
2023-01-19T22:12:34.231Z,14.73
2023-01-19T22:17:55.959Z,15.33
2023-01-19T22:23:17.713Z,13.40
2023-01-19T22:28:39.498Z,13.83
2023-01-19T22:34:01.300Z,12.77
2023-01-19T22:39:23.011Z,12.73
2023-01-19T22:44:45.806Z,13.30
2023-01-19T22:50:08.465Z,12.70
2023-01-19T22:55:30.623Z,12.33
2023-01-19T23:00:52.416Z,12.97
2023-01-19T23:06:19.852Z,12.77
2023-01-19T23:11:44.096Z,12.63
2023-01-19T23:17:06.011Z,13.43
2023-01-19T23:22:27.736Z,12.20
2023-01-19T23:27:49.471Z,12.80
2023-01-19T23:33:11.186Z,13.27
2023-01-19T23:38:32.914Z,12.43
2023-01-19T23:43:54.973Z,12.53
2023-01-19T23:49:18.082Z,12.60
2023-01-19T23:54:39.801Z,12.27
